sensor_id;sensor_type;location;lat;lon;timestamp;temperature;humidity
27803;DHT22;15182;48.174;11.562;2023-04-28T00:01:23;16.30;80.40
27803;DHT22;15182;48.174;11.562;2023-04-28T00:03:54;16.30;80.70
27803;DHT22;15182;48.174;11.562;2023-04-28T00:06:27;16.30;80.60
27803;DHT22;15182;48.174;11.562;2023-04-28T00:08:58;16.30;80.70
27803;DHT22;15182;48.174;11.562;2023-04-28T00:11:38;16.20;80.70
27803;DHT22;15182;48.174;11.562;2023-04-28T00:14:09;16.20;80.60
27803;DHT22;15182;48.174;11.562;2023-04-28T00:16:41;16.20;80.80
27803;DHT22;15182;48.174;11.562;2023-04-28T00:19:14;16.20;80.90
27803;DHT22;15182;48.174;11.562;2023-04-28T00:21:47;16.20;81.10
27803;DHT22;15182;48.174;11.562;2023-04-28T00:24:20;16.20;81.00
27803;DHT22;15182;48.174;11.562;2023-04-28T00:26:51;16.20;81.10
27803;DHT22;15182;48.174;11.562;2023-04-28T00:29:26;16.20;80.90
27803;DHT22;15182;48.174;11.562;2023-04-28T00:31:58;16.30;81.10
27803;DHT22;15182;48.174;11.562;2023-04-28T00:34:29;16.30;81.00
27803;DHT22;15182;48.174;11.562;2023-04-28T00:37:05;16.30;81.00
27803;DHT22;15182;48.174;11.562;2023-04-28T00:39:41;16.30;81.20
27803;DHT22;15182;48.174;11.562;2023-04-28T00:42:14;16.30;81.20
27803;DHT22;15182;48.174;11.562;2023-04-28T00:44:49;16.30;81.20
27803;DHT22;15182;48.174;11.562;2023-04-28T00:47:23;16.40;81.30
27803;DHT22;15182;48.174;11.562;2023-04-28T00:49:55;16.40;81.40
27803;DHT22;15182;48.174;11.562;2023-04-28T00:52:28;16.40;81.30
27803;DHT22;15182;48.174;11.562;2023-04-28T00:55:00;16.40;81.20
27803;DHT22;15182;48.174;11.562;2023-04-28T00:57:32;16.40;81.30
27803;DHT22;15182;48.174;11.562;2023-04-28T01:00:04;16.40;81.20
27803;DHT22;15182;48.174;11.562;2023-04-28T01:02:36;16.40;81.10
27803;DHT22;15182;48.174;11.562;2023-04-28T01:05:10;16.40;81.20
27803;DHT22;15182;48.174;11.562;2023-04-28T01:07:46;16.40;81.30
27803;DHT22;15182;48.174;11.562;2023-04-28T01:10:17;16.40;81.30
27803;DHT22;15182;48.174;11.562;2023-04-28T01:12:49;16.30;81.20
27803;DHT22;15182;48.174;11.562;2023-04-28T01:15:22;16.30;81.20
27803;DHT22;15182;48.174;11.562;2023-04-28T01:17:56;16.30;81.40
27803;DHT22;15182;48.174;11.562;2023-04-28T01:20:29;16.30;81.40
27803;DHT22;15182;48.174;11.562;2023-04-28T01:23:02;16.30;82.40
27803;DHT22;15182;48.174;11.562;2023-04-28T01:25:35;16.30;81.40
27803;DHT22;15182;48.174;11.562;2023-04-28T01:28:06;16.30;81.60
27803;DHT22;15182;48.174;11.562;2023-04-28T01:30:37;16.30;81.50
27803;DHT22;15182;48.174;11.562;2023-04-28T01:33:09;16.30;81.50
27803;DHT22;15182;48.174;11.562;2023-04-28T01:35:40;16.30;81.60
27803;DHT22;15182;48.174;11.562;2023-04-28T01:38:11;16.30;81.70
27803;DHT22;15182;48.174;11.562;2023-04-28T01:40:44;16.30;81.70
27803;DHT22;15182;48.174;11.562;2023-04-28T01:43:15;16.30;81.90
27803;DHT22;15182;48.174;11.562;2023-04-28T01:45:47;16.30;81.70
27803;DHT22;15182;48.174;11.562;2023-04-28T01:48:18;16.30;81.80
27803;DHT22;15182;48.174;11.562;2023-04-28T01:50:49;16.20;81.80
27803;DHT22;15182;48.174;11.562;2023-04-28T01:53:24;16.20;81.90
27803;DHT22;15182;48.174;11.562;2023-04-28T01:55:57;16.20;82.00
27803;DHT22;15182;48.174;11.562;2023-04-28T01:58:30;16.20;82.20
27803;DHT22;15182;48.174;11.562;2023-04-28T02:01:01;16.20;82.20
27803;DHT22;15182;48.174;11.562;2023-04-28T02:03:33;16.20;82.20
27803;DHT22;15182;48.174;11.562;2023-04-28T02:06:05;16.20;82.20
27803;DHT22;15182;48.174;11.562;2023-04-28T02:08:37;16.20;82.30
27803;DHT22;15182;48.174;11.562;2023-04-28T02:11:09;16.20;82.30
27803;DHT22;15182;48.174;11.562;2023-04-28T02:13:40;16.20;82.40
27803;DHT22;15182;48.174;11.562;2023-04-28T02:16:12;16.20;82.40
27803;DHT22;15182;48.174;11.562;2023-04-28T02:18:44;16.20;82.50
27803;DHT22;15182;48.174;11.562;2023-04-28T02:21:15;16.20;82.50
27803;DHT22;15182;48.174;11.562;2023-04-28T02:23:46;16.20;82.50
27803;DHT22;15182;48.174;11.562;2023-04-28T02:26:19;16.20;82.60
27803;DHT22;15182;48.174;11.562;2023-04-28T02:28:56;16.20;82.80
27803;DHT22;15182;48.174;11.562;2023-04-28T02:31:28;16.20;82.80
27803;DHT22;15182;48.174;11.562;2023-04-28T02:33:59;16.20;82.80
27803;DHT22;15182;48.174;11.562;2023-04-28T02:36:31;16.20;82.90
27803;DHT22;15182;48.174;11.562;2023-04-28T02:39:02;16.20;82.90
27803;DHT22;15182;48.174;11.562;2023-04-28T02:41:34;16.20;82.90
27803;DHT22;15182;48.174;11.562;2023-04-28T02:44:06;16.20;83.10
27803;DHT22;15182;48.174;11.562;2023-04-28T02:46:37;16.20;83.00
27803;DHT22;15182;48.174;11.562;2023-04-28T02:49:08;16.20;83.10
27803;DHT22;15182;48.174;11.562;2023-04-28T02:51:40;16.20;83.20
27803;DHT22;15182;48.174;11.562;2023-04-28T02:54:11;16.10;83.30
27803;DHT22;15182;48.174;11.562;2023-04-28T02:56:43;16.20;83.40
27803;DHT22;15182;48.174;11.562;2023-04-28T02:59:15;16.20;83.80
27803;DHT22;15182;48.174;11.562;2023-04-28T03:01:46;16.10;83.80
27803;DHT22;15182;48.174;11.562;2023-04-28T03:04:18;16.10;84.10
27803;DHT22;15182;48.174;11.562;2023-04-28T03:06:51;16.10;84.10
27803;DHT22;15182;48.174;11.562;2023-04-28T03:09:22;16.00;84.00
27803;DHT22;15182;48.174;11.562;2023-04-28T03:11:55;16.10;84.20
27803;DHT22;15182;48.174;11.562;2023-04-28T03:14:26;16.00;84.30
27803;DHT22;15182;48.174;11.562;2023-04-28T03:16:57;16.00;84.30
27803;DHT22;15182;48.174;11.562;2023-04-28T03:19:29;16.00;84.60
27803;DHT22;15182;48.174;11.562;2023-04-28T03:22:01;15.90;84.60
27803;DHT22;15182;48.174;11.562;2023-04-28T03:24:40;16.00;84.60
27803;DHT22;15182;48.174;11.562;2023-04-28T03:27:12;15.90;84.80
27803;DHT22;15182;48.174;11.562;2023-04-28T03:29:45;15.90;85.10
27803;DHT22;15182;48.174;11.562;2023-04-28T03:32:17;15.90;85.30
27803;DHT22;15182;48.174;11.562;2023-04-28T03:34:48;15.90;85.30
27803;DHT22;15182;48.174;11.562;2023-04-28T03:37:19;15.90;85.40
27803;DHT22;15182;48.174;11.562;2023-04-28T03:39:51;15.90;85.70
27803;DHT22;15182;48.174;11.562;2023-04-28T03:42:23;15.90;85.90
27803;DHT22;15182;48.174;11.562;2023-04-28T03:45:11;15.90;86.20
27803;DHT22;15182;48.174;11.562;2023-04-28T03:47:42;15.90;86.20
27803;DHT22;15182;48.174;11.562;2023-04-28T03:50:13;15.80;86.10
27803;DHT22;15182;48.174;11.562;2023-04-28T03:52:46;15.80;86.50
27803;DHT22;15182;48.174;11.562;2023-04-28T03:55:17;15.80;86.70
27803;DHT22;15182;48.174;11.562;2023-04-28T03:57:50;15.80;86.80
27803;DHT22;15182;48.174;11.562;2023-04-28T04:00:21;15.80;87.30
27803;DHT22;15182;48.174;11.562;2023-04-28T04:02:54;15.80;87.20
27803;DHT22;15182;48.174;11.562;2023-04-28T04:05:25;15.80;87.30
27803;DHT22;15182;48.174;11.562;2023-04-28T04:07:56;15.70;87.70
27803;DHT22;15182;48.174;11.562;2023-04-28T04:10:29;15.80;87.80
27803;DHT22;15182;48.174;11.562;2023-04-28T04:13:01;15.70;87.80
27803;DHT22;15182;48.174;11.562;2023-04-28T04:15:33;15.80;88.50
27803;DHT22;15182;48.174;11.562;2023-04-28T04:18:06;15.80;88.40
27803;DHT22;15182;48.174;11.562;2023-04-28T04:21:09;15.80;88.60
27803;DHT22;15182;48.174;11.562;2023-04-28T04:23:41;15.80;88.60
27803;DHT22;15182;48.174;11.562;2023-04-28T04:26:13;15.80;88.80
27803;DHT22;15182;48.174;11.562;2023-04-28T04:28:46;15.80;89.00
27803;DHT22;15182;48.174;11.562;2023-04-28T04:31:17;15.80;89.10
27803;DHT22;15182;48.174;11.562;2023-04-28T04:33:49;15.80;89.00
27803;DHT22;15182;48.174;11.562;2023-04-28T04:36:22;15.80;89.30
27803;DHT22;15182;48.174;11.562;2023-04-28T04:38:53;15.80;89.40
27803;DHT22;15182;48.174;11.562;2023-04-28T04:41:26;15.80;89.40
27803;DHT22;15182;48.174;11.562;2023-04-28T04:44:16;15.80;89.60
27803;DHT22;15182;48.174;11.562;2023-04-28T04:46:49;15.80;89.60
27803;DHT22;15182;48.174;11.562;2023-04-28T04:49:21;15.80;89.50
27803;DHT22;15182;48.174;11.562;2023-04-28T04:51:53;15.80;89.60
27803;DHT22;15182;48.174;11.562;2023-04-28T04:54:25;15.70;89.50
27803;DHT22;15182;48.174;11.562;2023-04-28T04:56:57;15.70;89.50
27803;DHT22;15182;48.174;11.562;2023-04-28T04:59:50;15.70;89.50
27803;DHT22;15182;48.174;11.562;2023-04-28T05:02:22;15.70;89.80
27803;DHT22;15182;48.174;11.562;2023-04-28T05:04:53;15.60;89.70
27803;DHT22;15182;48.174;11.562;2023-04-28T05:07:26;15.60;89.80
27803;DHT22;15182;48.174;11.562;2023-04-28T05:09:57;15.60;89.90
27803;DHT22;15182;48.174;11.562;2023-04-28T05:12:28;15.60;90.00
27803;DHT22;15182;48.174;11.562;2023-04-28T05:15:01;15.60;89.90
27803;DHT22;15182;48.174;11.562;2023-04-28T05:17:33;15.60;90.00
27803;DHT22;15182;48.174;11.562;2023-04-28T05:20:05;15.50;90.00
27803;DHT22;15182;48.174;11.562;2023-04-28T05:22:37;15.50;90.00
27803;DHT22;15182;48.174;11.562;2023-04-28T05:25:10;15.50;90.10
27803;DHT22;15182;48.174;11.562;2023-04-28T05:27:42;15.50;90.10
27803;DHT22;15182;48.174;11.562;2023-04-28T05:30:15;15.50;90.20
27803;DHT22;15182;48.174;11.562;2023-04-28T05:32:47;15.50;90.40
27803;DHT22;15182;48.174;11.562;2023-04-28T05:35:18;15.50;90.30
27803;DHT22;15182;48.174;11.562;2023-04-28T05:37:49;15.50;90.20
27803;DHT22;15182;48.174;11.562;2023-04-28T05:40:21;15.50;90.20
27803;DHT22;15182;48.174;11.562;2023-04-28T05:42:53;15.50;90.30
27803;DHT22;15182;48.174;11.562;2023-04-28T05:45:26;15.50;90.30
27803;DHT22;15182;48.174;11.562;2023-04-28T05:47:57;15.50;90.30
27803;DHT22;15182;48.174;11.562;2023-04-28T05:50:29;15.50;90.40
27803;DHT22;15182;48.174;11.562;2023-04-28T05:53:01;15.50;90.50
27803;DHT22;15182;48.174;11.562;2023-04-28T05:55:33;15.50;90.50
27803;DHT22;15182;48.174;11.562;2023-04-28T05:58:05;15.50;90.50
27803;DHT22;15182;48.174;11.562;2023-04-28T06:00:38;15.50;90.70
27803;DHT22;15182;48.174;11.562;2023-04-28T06:03:10;15.50;90.80
27803;DHT22;15182;48.174;11.562;2023-04-28T06:05:42;15.50;90.70
27803;DHT22;15182;48.174;11.562;2023-04-28T06:08:15;15.60;90.80
27803;DHT22;15182;48.174;11.562;2023-04-28T06:10:46;15.50;90.80
27803;DHT22;15182;48.174;11.562;2023-04-28T06:13:17;15.60;90.80
27803;DHT22;15182;48.174;11.562;2023-04-28T06:15:50;15.60;90.80
27803;DHT22;15182;48.174;11.562;2023-04-28T06:18:21;15.60;90.90
27803;DHT22;15182;48.174;11.562;2023-04-28T06:20:53;15.60;90.80
27803;DHT22;15182;48.174;11.562;2023-04-28T06:23:25;15.60;90.70
27803;DHT22;15182;48.174;11.562;2023-04-28T06:25:56;15.60;90.70
27803;DHT22;15182;48.174;11.562;2023-04-28T06:28:27;15.70;90.70
27803;DHT22;15182;48.174;11.562;2023-04-28T06:31:00;15.70;90.60
27803;DHT22;15182;48.174;11.562;2023-04-28T06:33:32;15.70;90.70
27803;DHT22;15182;48.174;11.562;2023-04-28T06:36:04;15.70;90.70
27803;DHT22;15182;48.174;11.562;2023-04-28T06:38:36;15.70;90.90
27803;DHT22;15182;48.174;11.562;2023-04-28T06:41:11;15.70;90.90
27803;DHT22;15182;48.174;11.562;2023-04-28T06:43:45;15.80;91.00
27803;DHT22;15182;48.174;11.562;2023-04-28T06:46:32;15.80;91.10
27803;DHT22;15182;48.174;11.562;2023-04-28T06:49:04;15.80;91.20
27803;DHT22;15182;48.174;11.562;2023-04-28T06:51:35;15.80;91.20
27803;DHT22;15182;48.174;11.562;2023-04-28T06:54:07;15.90;91.40
27803;DHT22;15182;48.174;11.562;2023-04-28T06:56:39;15.90;91.50
27803;DHT22;15182;48.174;11.562;2023-04-28T06:59:10;15.90;91.60
27803;DHT22;15182;48.174;11.562;2023-04-28T07:01:42;16.00;91.60
27803;DHT22;15182;48.174;11.562;2023-04-28T07:04:14;16.00;91.70
27803;DHT22;15182;48.174;11.562;2023-04-28T07:06:46;16.10;91.70
27803;DHT22;15182;48.174;11.562;2023-04-28T07:09:17;16.10;91.60
27803;DHT22;15182;48.174;11.562;2023-04-28T07:11:48;16.20;91.70
27803;DHT22;15182;48.174;11.562;2023-04-28T07:14:19;16.20;91.80
27803;DHT22;15182;48.174;11.562;2023-04-28T07:16:52;16.30;91.70
27803;DHT22;15182;48.174;11.562;2023-04-28T07:19:23;16.30;91.80
27803;DHT22;15182;48.174;11.562;2023-04-28T07:21:54;16.40;91.60
27803;DHT22;15182;48.174;11.562;2023-04-28T07:24:25;16.40;91.60
27803;DHT22;15182;48.174;11.562;2023-04-28T07:26:57;16.50;91.60
27803;DHT22;15182;48.174;11.562;2023-04-28T07:29:30;16.50;91.60
27803;DHT22;15182;48.174;11.562;2023-04-28T07:32:03;16.50;91.60
27803;DHT22;15182;48.174;11.562;2023-04-28T07:34:37;16.50;91.60
27803;DHT22;15182;48.174;11.562;2023-04-28T07:37:09;16.50;91.60
27803;DHT22;15182;48.174;11.562;2023-04-28T07:39:40;16.50;91.70
27803;DHT22;15182;48.174;11.562;2023-04-28T07:42:11;16.60;91.60
27803;DHT22;15182;48.174;11.562;2023-04-28T07:44:43;16.60;91.60
27803;DHT22;15182;48.174;11.562;2023-04-28T07:47:15;16.60;91.60
27803;DHT22;15182;48.174;11.562;2023-04-28T07:49:47;16.60;91.80
27803;DHT22;15182;48.174;11.562;2023-04-28T07:52:18;16.60;91.80
27803;DHT22;15182;48.174;11.562;2023-04-28T07:54:49;16.60;91.80
27803;DHT22;15182;48.174;11.562;2023-04-28T07:57:21;16.60;91.90
27803;DHT22;15182;48.174;11.562;2023-04-28T07:59:53;16.60;92.00
27803;DHT22;15182;48.174;11.562;2023-04-28T08:02:25;16.60;92.10
27803;DHT22;15182;48.174;11.562;2023-04-28T08:04:56;16.60;92.10
27803;DHT22;15182;48.174;11.562;2023-04-28T08:07:29;16.60;92.00
27803;DHT22;15182;48.174;11.562;2023-04-28T08:10:00;16.60;92.30
27803;DHT22;15182;48.174;11.562;2023-04-28T08:12:32;16.60;92.20
27803;DHT22;15182;48.174;11.562;2023-04-28T08:15:04;16.60;92.30
27803;DHT22;15182;48.174;11.562;2023-04-28T08:17:38;16.60;92.40
27803;DHT22;15182;48.174;11.562;2023-04-28T08:20:10;16.60;92.70
27803;DHT22;15182;48.174;11.562;2023-04-28T08:22:46;16.60;92.70
27803;DHT22;15182;48.174;11.562;2023-04-28T08:25:18;16.60;92.90
27803;DHT22;15182;48.174;11.562;2023-04-28T08:27:50;16.60;92.90
27803;DHT22;15182;48.174;11.562;2023-04-28T08:30:23;16.60;93.00
27803;DHT22;15182;48.174;11.562;2023-04-28T08:32:57;16.60;93.00
27803;DHT22;15182;48.174;11.562;2023-04-28T08:35:28;16.60;93.10
27803;DHT22;15182;48.174;11.562;2023-04-28T08:37:59;16.60;93.00
27803;DHT22;15182;48.174;11.562;2023-04-28T08:40:31;16.60;93.10
27803;DHT22;15182;48.174;11.562;2023-04-28T08:43:02;16.50;93.10
27803;DHT22;15182;48.174;11.562;2023-04-28T08:45:41;16.50;93.20
27803;DHT22;15182;48.174;11.562;2023-04-28T08:48:20;16.50;93.50
27803;DHT22;15182;48.174;11.562;2023-04-28T08:50:54;16.50;93.60
27803;DHT22;15182;48.174;11.562;2023-04-28T08:53:27;16.50;93.40
27803;DHT22;15182;48.174;11.562;2023-04-28T08:55:59;16.50;93.40
27803;DHT22;15182;48.174;11.562;2023-04-28T08:58:34;16.50;93.50
27803;DHT22;15182;48.174;11.562;2023-04-28T09:01:05;16.50;93.60
27803;DHT22;15182;48.174;11.562;2023-04-28T09:03:38;16.50;93.70
27803;DHT22;15182;48.174;11.562;2023-04-28T09:06:09;16.50;93.80
27803;DHT22;15182;48.174;11.562;2023-04-28T09:08:41;16.50;93.80
27803;DHT22;15182;48.174;11.562;2023-04-28T09:11:12;16.50;93.80
27803;DHT22;15182;48.174;11.562;2023-04-28T09:13:43;16.50;93.90
27803;DHT22;15182;48.174;11.562;2023-04-28T09:16:15;16.50;93.90
27803;DHT22;15182;48.174;11.562;2023-04-28T09:18:57;16.50;93.90
27803;DHT22;15182;48.174;11.562;2023-04-28T09:21:29;16.60;94.10
27803;DHT22;15182;48.174;11.562;2023-04-28T09:24:00;16.60;93.90
27803;DHT22;15182;48.174;11.562;2023-04-28T09:26:49;16.50;93.80
27803;DHT22;15182;48.174;11.562;2023-04-28T09:29:20;16.50;94.10
27803;DHT22;15182;48.174;11.562;2023-04-28T09:31:51;16.50;93.90
27803;DHT22;15182;48.174;11.562;2023-04-28T09:34:24;16.50;94.10
27803;DHT22;15182;48.174;11.562;2023-04-28T09:36:55;16.50;94.30
27803;DHT22;15182;48.174;11.562;2023-04-28T09:39:31;16.50;94.40
27803;DHT22;15182;48.174;11.562;2023-04-28T09:42:02;16.50;94.80
27803;DHT22;15182;48.174;11.562;2023-04-28T09:44:32;16.40;94.70
27803;DHT22;15182;48.174;11.562;2023-04-28T09:47:18;16.40;94.90
27803;DHT22;15182;48.174;11.562;2023-04-28T09:49:57;16.40;95.30
27803;DHT22;15182;48.174;11.562;2023-04-28T09:52:31;16.40;95.30
27803;DHT22;15182;48.174;11.562;2023-04-28T09:55:05;16.40;95.20
27803;DHT22;15182;48.174;11.562;2023-04-28T09:57:38;16.30;95.40
27803;DHT22;15182;48.174;11.562;2023-04-28T10:00:12;16.30;95.40
27803;DHT22;15182;48.174;11.562;2023-04-28T10:02:44;16.30;95.50
27803;DHT22;15182;48.174;11.562;2023-04-28T10:05:17;16.30;95.60
27803;DHT22;15182;48.174;11.562;2023-04-28T10:07:49;16.30;95.80
27803;DHT22;15182;48.174;11.562;2023-04-28T10:10:22;16.20;96.20
27803;DHT22;15182;48.174;11.562;2023-04-28T10:12:56;16.20;96.00
27803;DHT22;15182;48.174;11.562;2023-04-28T10:15:28;16.20;96.10
27803;DHT22;15182;48.174;11.562;2023-04-28T10:18:00;16.20;96.20
27803;DHT22;15182;48.174;11.562;2023-04-28T10:20:34;16.20;96.40
27803;DHT22;15182;48.174;11.562;2023-04-28T10:23:18;16.20;96.70
27803;DHT22;15182;48.174;11.562;2023-04-28T10:25:58;16.20;96.90
27803;DHT22;15182;48.174;11.562;2023-04-28T10:28:30;16.20;96.80
27803;DHT22;15182;48.174;11.562;2023-04-28T10:31:12;16.20;96.80
27803;DHT22;15182;48.174;11.562;2023-04-28T10:33:45;16.20;97.40
27803;DHT22;15182;48.174;11.562;2023-04-28T10:36:47;16.20;97.10
27803;DHT22;15182;48.174;11.562;2023-04-28T10:39:21;16.20;97.80
27803;DHT22;15182;48.174;11.562;2023-04-28T10:41:53;16.30;97.30
27803;DHT22;15182;48.174;11.562;2023-04-28T10:44:40;16.30;97.50
27803;DHT22;15182;48.174;11.562;2023-04-28T10:47:11;16.30;98.10
27803;DHT22;15182;48.174;11.562;2023-04-28T10:50:08;16.30;97.70
27803;DHT22;15182;48.174;11.562;2023-04-28T10:52:51;16.30;98.30
27803;DHT22;15182;48.174;11.562;2023-04-28T10:55:33;16.30;98.40
27803;DHT22;15182;48.174;11.562;2023-04-28T10:58:30;16.30;98.40
27803;DHT22;15182;48.174;11.562;2023-04-28T11:01:24;16.30;98.70
27803;DHT22;15182;48.174;11.562;2023-04-28T11:03:59;16.30;98.60
27803;DHT22;15182;48.174;11.562;2023-04-28T11:06:35;16.30;98.10
27803;DHT22;15182;48.174;11.562;2023-04-28T11:12:19;16.30;99.00
27803;DHT22;15182;48.174;11.562;2023-04-28T11:14:50;16.30;98.40
27803;DHT22;15182;48.174;11.562;2023-04-28T11:17:38;16.40;98.60
27803;DHT22;15182;48.174;11.562;2023-04-28T11:20:13;16.40;99.20
27803;DHT22;15182;48.174;11.562;2023-04-28T11:22:46;16.30;98.90
27803;DHT22;15182;48.174;11.562;2023-04-28T11:25:23;16.40;98.80
27803;DHT22;15182;48.174;11.562;2023-04-28T11:28:04;16.30;99.00
27803;DHT22;15182;48.174;11.562;2023-04-28T11:30:35;16.30;99.50
27803;DHT22;15182;48.174;11.562;2023-04-28T11:33:08;16.30;99.20
27803;DHT22;15182;48.174;11.562;2023-04-28T11:35:41;16.30;99.30
27803;DHT22;15182;48.174;11.562;2023-04-28T11:38:13;16.30;99.40
27803;DHT22;15182;48.174;11.562;2023-04-28T11:40:58;16.40;99.30
27803;DHT22;15182;48.174;11.562;2023-04-28T11:43:30;16.40;99.90
27803;DHT22;15182;48.174;11.562;2023-04-28T11:46:01;16.40;99.60
27803;DHT22;15182;48.174;11.562;2023-04-28T11:48:34;16.40;99.70
27803;DHT22;15182;48.174;11.562;2023-04-28T11:51:06;16.40;99.80
27803;DHT22;15182;48.174;11.562;2023-04-28T11:53:46;16.40;99.70
27803;DHT22;15182;48.174;11.562;2023-04-28T11:56:19;16.50;99.90
27803;DHT22;15182;48.174;11.562;2023-04-28T11:59:02;16.50;99.90
27803;DHT22;15182;48.174;11.562;2023-04-28T12:01:46;16.50;99.90
27803;DHT22;15182;48.174;11.562;2023-04-28T12:04:27;16.50;99.90
27803;DHT22;15182;48.174;11.562;2023-04-28T12:07:00;16.50;99.90
27803;DHT22;15182;48.174;11.562;2023-04-28T12:09:32;16.50;99.90
27803;DHT22;15182;48.174;11.562;2023-04-28T12:12:07;16.50;99.90
27803;DHT22;15182;48.174;11.562;2023-04-28T12:14:56;16.50;99.90
27803;DHT22;15182;48.174;11.562;2023-04-28T12:17:29;16.50;99.90
27803;DHT22;15182;48.174;11.562;2023-04-28T12:20:03;16.50;99.90
27803;DHT22;15182;48.174;11.562;2023-04-28T12:22:47;16.50;99.90
27803;DHT22;15182;48.174;11.562;2023-04-28T12:25:20;16.60;99.90
27803;DHT22;15182;48.174;11.562;2023-04-28T12:28:03;16.60;99.90
27803;DHT22;15182;48.174;11.562;2023-04-28T12:30:38;16.60;99.90
27803;DHT22;15182;48.174;11.562;2023-04-28T12:33:23;16.70;99.90
27803;DHT22;15182;48.174;11.562;2023-04-28T12:35:57;16.70;99.90
27803;DHT22;15182;48.174;11.562;2023-04-28T12:38:29;16.70;99.90
27803;DHT22;15182;48.174;11.562;2023-04-28T12:41:01;16.70;99.90
27803;DHT22;15182;48.174;11.562;2023-04-28T12:43:34;16.70;99.90
27803;DHT22;15182;48.174;11.562;2023-04-28T12:46:05;16.80;99.90
27803;DHT22;15182;48.174;11.562;2023-04-28T12:48:36;16.80;99.90
27803;DHT22;15182;48.174;11.562;2023-04-28T12:51:07;16.90;99.90
27803;DHT22;15182;48.174;11.562;2023-04-28T12:53:40;16.90;99.90
27803;DHT22;15182;48.174;11.562;2023-04-28T12:56:11;16.90;99.90
27803;DHT22;15182;48.174;11.562;2023-04-28T12:58:44;17.00;99.90
27803;DHT22;15182;48.174;11.562;2023-04-28T13:01:15;17.00;99.90
27803;DHT22;15182;48.174;11.562;2023-04-28T13:03:49;17.00;99.90
27803;DHT22;15182;48.174;11.562;2023-04-28T13:06:20;17.00;99.90
27803;DHT22;15182;48.174;11.562;2023-04-28T13:08:53;17.10;99.90
27803;DHT22;15182;48.174;11.562;2023-04-28T13:11:24;17.10;99.90
27803;DHT22;15182;48.174;11.562;2023-04-28T13:13:57;17.10;99.90
27803;DHT22;15182;48.174;11.562;2023-04-28T13:16:29;17.20;99.90
27803;DHT22;15182;48.174;11.562;2023-04-28T13:19:01;17.20;99.90
27803;DHT22;15182;48.174;11.562;2023-04-28T13:21:37;17.20;99.90
27803;DHT22;15182;48.174;11.562;2023-04-28T13:24:10;17.30;99.90
27803;DHT22;15182;48.174;11.562;2023-04-28T13:26:42;17.30;99.90
27803;DHT22;15182;48.174;11.562;2023-04-28T13:29:14;17.30;99.90
27803;DHT22;15182;48.174;11.562;2023-04-28T13:31:48;17.30;99.90
27803;DHT22;15182;48.174;11.562;2023-04-28T13:34:19;17.40;99.90
27803;DHT22;15182;48.174;11.562;2023-04-28T13:36:53;17.40;99.90
27803;DHT22;15182;48.174;11.562;2023-04-28T13:39:24;17.40;99.90
27803;DHT22;15182;48.174;11.562;2023-04-28T13:41:57;17.40;99.90
27803;DHT22;15182;48.174;11.562;2023-04-28T13:44:31;17.40;99.90
27803;DHT22;15182;48.174;11.562;2023-04-28T13:47:02;17.40;99.90
27803;DHT22;15182;48.174;11.562;2023-04-28T13:49:36;17.50;99.90
27803;DHT22;15182;48.174;11.562;2023-04-28T13:52:07;17.50;99.90
27803;DHT22;15182;48.174;11.562;2023-04-28T13:54:40;17.50;99.90
27803;DHT22;15182;48.174;11.562;2023-04-28T13:57:12;17.60;99.90
27803;DHT22;15182;48.174;11.562;2023-04-28T13:59:45;17.60;99.90
27803;DHT22;15182;48.174;11.562;2023-04-28T14:02:16;17.60;99.90
27803;DHT22;15182;48.174;11.562;2023-04-28T14:04:47;17.70;99.90
27803;DHT22;15182;48.174;11.562;2023-04-28T14:07:19;17.70;99.90
27803;DHT22;15182;48.174;11.562;2023-04-28T14:09:50;17.80;99.90
27803;DHT22;15182;48.174;11.562;2023-04-28T14:12:22;17.80;99.90
27803;DHT22;15182;48.174;11.562;2023-04-28T14:14:55;17.80;99.90
27803;DHT22;15182;48.174;11.562;2023-04-28T14:17:27;17.80;99.90
27803;DHT22;15182;48.174;11.562;2023-04-28T14:19:59;17.90;99.90
27803;DHT22;15182;48.174;11.562;2023-04-28T14:22:31;17.90;99.90
27803;DHT22;15182;48.174;11.562;2023-04-28T14:25:03;17.90;99.90
27803;DHT22;15182;48.174;11.562;2023-04-28T14:27:34;17.90;99.90
27803;DHT22;15182;48.174;11.562;2023-04-28T14:30:09;18.00;99.90
27803;DHT22;15182;48.174;11.562;2023-04-28T14:32:40;18.00;99.90
27803;DHT22;15182;48.174;11.562;2023-04-28T14:35:12;18.00;99.90
27803;DHT22;15182;48.174;11.562;2023-04-28T14:37:47;18.00;99.90
27803;DHT22;15182;48.174;11.562;2023-04-28T14:40:18;18.00;99.90
27803;DHT22;15182;48.174;11.562;2023-04-28T14:42:50;18.00;99.90
27803;DHT22;15182;48.174;11.562;2023-04-28T14:45:23;18.00;99.90
27803;DHT22;15182;48.174;11.562;2023-04-28T14:47:54;18.00;99.90
27803;DHT22;15182;48.174;11.562;2023-04-28T14:50:25;18.00;99.90
27803;DHT22;15182;48.174;11.562;2023-04-28T14:52:57;18.00;99.90
27803;DHT22;15182;48.174;11.562;2023-04-28T14:55:32;18.00;99.90
27803;DHT22;15182;48.174;11.562;2023-04-28T14:58:04;18.00;99.90
27803;DHT22;15182;48.174;11.562;2023-04-28T15:03:07;18.00;99.90
27803;DHT22;15182;48.174;11.562;2023-04-28T15:05:38;18.00;99.90
27803;DHT22;15182;48.174;11.562;2023-04-28T15:08:10;18.00;99.90
27803;DHT22;15182;48.174;11.562;2023-04-28T15:10:41;18.00;99.90
27803;DHT22;15182;48.174;11.562;2023-04-28T15:13:13;18.00;99.90
27803;DHT22;15182;48.174;11.562;2023-04-28T15:15:46;18.00;99.90
27803;DHT22;15182;48.174;11.562;2023-04-28T15:18:18;18.00;99.90
27803;DHT22;15182;48.174;11.562;2023-04-28T15:20:50;18.00;99.90
27803;DHT22;15182;48.174;11.562;2023-04-28T15:23:22;18.00;99.90
27803;DHT22;15182;48.174;11.562;2023-04-28T15:25:54;18.00;99.90
27803;DHT22;15182;48.174;11.562;2023-04-28T15:28:26;18.00;99.90
27803;DHT22;15182;48.174;11.562;2023-04-28T15:30:59;18.00;99.90
27803;DHT22;15182;48.174;11.562;2023-04-28T15:33:31;18.00;99.90
27803;DHT22;15182;48.174;11.562;2023-04-28T15:36:03;18.00;99.90
27803;DHT22;15182;48.174;11.562;2023-04-28T15:38:34;18.00;99.90
27803;DHT22;15182;48.174;11.562;2023-04-28T15:41:07;17.90;99.90
27803;DHT22;15182;48.174;11.562;2023-04-28T15:43:38;17.90;99.90
27803;DHT22;15182;48.174;11.562;2023-04-28T15:46:11;17.90;99.90
27803;DHT22;15182;48.174;11.562;2023-04-28T15:48:45;17.90;99.90
27803;DHT22;15182;48.174;11.562;2023-04-28T15:51:17;17.90;99.90
27803;DHT22;15182;48.174;11.562;2023-04-28T15:53:48;17.90;99.90
27803;DHT22;15182;48.174;11.562;2023-04-28T15:56:22;17.80;99.90
27803;DHT22;15182;48.174;11.562;2023-04-28T15:58:55;17.80;99.90